KSPA/SPA METAR and TAF weather

Enter ICAO airport designator
Station Type Date Time Source
KSPA METAR 2020/08/05 15:55 UTC NOAA

KSPA 051555Z AUTO 11003KT 10SM CLR 29/21 A3007 RMK AO2


Station Type Date Time Source
KSPA Decoded METAR 2020/08/05 15:55 UTC NOAA

Spartanburg Memorial, SC, United States (KSPA) 34-55N 081-57W
Aug 05, 2020 - 11:55 AM EDT / 2020.08.05 1555 UTC
Wind: from the ESE (110 degrees) at 3 MPH (3 KT):0
Visibility: 10 mile(s):0
Sky conditions: clear
Temperature: 84 F (29 C)
Dew Point: 69 F (21 C)
Relative Humidity: 62%
Pressure (altimeter): 30.07 in. Hg (1018 hPa)
ob: KSPA 051555Z AUTO 11003KT 10SM CLR 29/21 A3007 RMK AO2
cycle: 16

Station Type Date Time Source
KSPA TAF UTC NOAA

Error!

Example: see airport list